| time (UTC) | temp F | wind direction | speed MPH | gust MPH | rain 1hr in | rain 24hr in | rain mn in | humidity % | barometer mb |
| 20260507112825 | 45 | 188 | 0.0 | 6.0 | 0.00 | 0.00 | 0.00 | 59 | 1012.3 |
| 20260507105825 | 45 | 129 | 0.0 | 6.0 | 0.00 | 0.00 | 0.00 | 56 | 1012.4 |
| 20260507102825 | 45 | 184 | 0.0 | 2.0 | 0.00 | 0.00 | 0.00 | 58 | 1012.6 |
| 20260507095825 | 45 | 173 | 0.0 | 6.0 | 0.00 | 0.00 | 0.00 | 56 | 1013.0 |
| 20260507092825 | 46 | 180 | 0.0 | 6.0 | 0.00 | 0.00 | 0.00 | 54 | 1013.7 |
| 20260507085825 | 45 | 339 | 0.0 | 0.0 | 0.00 | 0.00 | 0.00 | 58 | 1014.0 |
| 20260507082824 | 44 | 339 | 0.0 | 0.0 | 0.00 | 0.00 | 0.00 | 59 | 1014.2 |
| 20260507075825 | 44 | 339 | 0.0 | 0.0 | 0.00 | 0.00 | 0.00 | 59 | 1014.5 |
| 20260507072825 | 43 | 339 | 0.0 | 0.0 | 0.00 | 0.00 | 0.00 | 59 | 1014.6 |
| 20260507065824 | 43 | 339 | 0.0 | 0.0 | 0.00 | 0.00 | 0.00 | 59 | 1014.9 |
| 20260507062825 | 42 | 339 | 0.0 | 0.0 | 0.00 | 0.00 | 0.00 | 62 | 1015.0 |
| 20260507055825 | 43 | 339 | 0.0 | 0.0 | 0.00 | 0.00 | 0.00 | 61 | 1015.1 |
| 20260507052825 | 44 | 339 | 0.0 | 0.0 | 0.00 | 0.00 | 0.00 | 58 | 1015.4 |
| 20260507045825 | 44 | 339 | 0.0 | 0.0 | 0.00 | 0.00 | 0.00 | 60 | 1015.6 |
| 20260507042825 | 44 | 339 | 0.0 | 0.0 | 0.00 | 0.00 | 0.00 | 56 | 1015.5 |
| 20260507035825 | 44 | 339 | 0.0 | 0.0 | 0.00 | 0.00 | 0.00 | 55 | 1015.7 |
| 20260507032825 | 45 | 339 | 0.0 | 0.0 | 0.00 | 0.00 | 0.00 | 53 | 1015.9 |
| 20260507025825 | 46 | 339 | 0.0 | 0.0 | 0.00 | 0.00 | 0.00 | 48 | 1016.0 |
| 20260507022825 | 48 | 339 | 0.0 | 0.0 | 0.00 | 0.00 | 0.00 | 47 | 1015.9 |
| 20260507015824 | 50 | 339 | 0.0 | 0.0 | 0.00 | 0.00 | 0.00 | 41 | 1015.8 |
| 20260507012824 | 53 | 339 | 0.0 | 6.0 | 0.00 | 0.00 | 0.00 | 37 | 1015.8 |
| 20260507005824 | 55 | 340 | 2.0 | 17.0 | 0.00 | 0.00 | 0.00 | 33 | 1015.8 |
| 20260507002825 | 56 | 336 | 6.0 | 23.0 | 0.00 | 0.00 | 0.00 | 31 | 1015.7 |
| 20260506235825 | 57 | 281 | 6.0 | 19.0 | 0.00 | 0.00 | 0.00 | 31 | 1016.0 |
| 20260506232824 | 58 | 346 | 13.0 | 21.0 | 0.00 | 0.00 | 0.00 | 32 | 1016.0 |
| 20260506225825 | 57 | 30 | 2.0 | 15.0 | 0.00 | 0.00 | 0.00 | 34 | 1016.3 |
| 20260506222825 | 57 | 349 | 8.0 | 23.0 | 0.00 | 0.00 | 0.00 | 33 | 1016.2 |
| 20260506215825 | 57 | 306 | 4.0 | 21.0 | 0.00 | 0.00 | 0.00 | 33 | 1016.4 |
| 20260506212825 | 57 | 296 | 4.0 | 23.0 | 0.00 | 0.00 | 0.00 | 35 | 1016.4 |
| 20260506205824 | 58 | 338 | 0.0 | 23.0 | 0.00 | 0.00 | 0.00 | 35 | 1016.7 |
| 20260506202825 | 57 | 344 | 8.0 | 19.0 | 0.00 | 0.00 | 0.00 | 39 | 1016.8 |
| 20260506195824 | 58 | 5 | 2.0 | 25.0 | 0.00 | 0.00 | 0.00 | 35 | 1017.2 |
| 20260506192824 | 57 | 276 | 6.0 | 25.0 | 0.00 | 0.00 | 0.00 | 36 | 1017.1 |
| 20260506185825 | 56 | 308 | 15.0 | 21.0 | 0.00 | 0.00 | 0.00 | 33 | 1017.3 |
| 20260506182824 | 55 | 315 | 8.0 | 19.0 | 0.00 | 0.00 | 0.00 | 35 | 1017.5 |
| 20260506175824 | 54 | 309 | 4.0 | 21.0 | 0.00 | 0.00 | 0.00 | 39 | 1017.8 |
| 20260506172824 | 53 | 336 | 6.0 | 21.0 | 0.00 | 0.00 | 0.00 | 40 | 1018.1 |
| 20260506165824 | 52 | 317 | 2.0 | 13.0 | 0.00 | 0.00 | 0.00 | 40 | 1018.2 |
| 20260506162824 | 52 | 344 | 6.0 | 19.0 | 0.00 | 0.00 | 0.00 | 39 | 1018.2 |
| 20260506155824 | 52 | 344 | 4.0 | 23.0 | 0.00 | 0.00 | 0.00 | 43 | 1017.9 |
| 20260506152825 | 50 | 327 | 2.0 | 23.0 | 0.00 | 0.00 | 0.00 | 45 | 1018.1 |
| 20260506145825 | 49 | 313 | 4.0 | 11.0 | 0.00 | 0.00 | 0.00 | 45 | 1017.8 |
| 20260506142825 | 48 | 308 | 0.0 | 8.0 | 0.00 | 0.00 | 0.00 | 45 | 1018.1 |
| 20260506135825 | 46 | 307 | 2.0 | 11.0 | 0.00 | 0.00 | 0.00 | 51 | 1017.7 |
| 20260506132824 | 45 | 306 | 0.0 | 6.0 | 0.00 | 0.00 | 0.00 | 55 | 1017.4 |
| 20260506125824 | 43 | 306 | 0.0 | 6.0 | 0.00 | 0.00 | 0.00 | 58 | 1017.2 |
| 20260506122824 | 42 | 306 | 2.0 | 2.0 | 0.00 | 0.00 | 0.00 | 60 | 1016.8 |
| 20260506115824 | 41 | 306 | 0.0 | 2.0 | 0.00 | 0.00 | 0.00 | 61 | 1016.5 |